createdAt,value
2022-10-17T00:00:12.890Z,96671.81
2022-10-17T00:02:41.845Z,96672.13
2022-10-17T00:05:12.582Z,96676.70
2022-10-17T00:07:41.544Z,96670.87
2022-10-17T00:10:12.040Z,96669.59
2022-10-17T00:12:40.867Z,96673.69
2022-10-17T00:15:11.506Z,96673.21
2022-10-17T00:17:40.280Z,96672.20
2022-10-17T00:20:09.851Z,96676.48
2022-10-17T00:22:38.995Z,96674.65
2022-10-17T00:25:11.312Z,96681.62
2022-10-17T00:27:42.258Z,96678.63
2022-10-17T00:30:14.398Z,96674.88
2022-10-17T00:32:44.388Z,96674.23
2022-10-17T00:35:13.281Z,96675.97
2022-10-17T00:37:41.976Z,96677.53
2022-10-17T00:40:11.526Z,96675.27
2022-10-17T00:42:40.690Z,96684.64
2022-10-17T00:45:18.022Z,96682.47
2022-10-17T00:47:49.687Z,96683.31
2022-10-17T00:50:19.272Z,96685.13
2022-10-17T00:52:50.079Z,96691.61
2022-10-17T00:55:24.365Z,96691.86
2022-10-17T00:57:53.898Z,96689.86
2022-10-17T01:00:23.046Z,96689.19
2022-10-17T01:02:51.912Z,96688.13
2022-10-17T01:05:22.282Z,96688.09
2022-10-17T01:07:53.410Z,96684.23
2022-10-17T01:12:55.103Z,96688.98
2022-10-17T01:15:38.597Z,96685.08
2022-10-17T01:18:18.730Z,96686.03
2022-10-17T01:20:55.851Z,96690.00
2022-10-17T01:23:51.482Z,96687.45
2022-10-17T01:26:25.805Z,96681.17
2022-10-17T01:29:03.429Z,96688.73
2022-10-17T01:31:43.772Z,96690.02
2022-10-17T01:34:21.143Z,96683.00
2022-10-17T01:36:55.664Z,96679.03
2022-10-17T01:39:40.788Z,96664.45
2022-10-17T01:42:27.897Z,96680.84
2022-10-17T01:45:11.796Z,96686.19
2022-10-17T01:47:42.884Z,96690.40
2022-10-17T01:50:14.438Z,96689.66
2022-10-17T01:52:55.029Z,96698.19
2022-10-17T01:55:26.584Z,96695.00
2022-10-17T01:57:58.173Z,96699.44
2022-10-17T02:00:28.941Z,96702.72
2022-10-17T02:03:02.987Z,96705.39
2022-10-17T02:05:34.735Z,96700.01
2022-10-17T02:08:03.388Z,96700.36
2022-10-17T02:10:49.921Z,96703.16
2022-10-17T02:13:21.475Z,96702.94
2022-10-17T02:16:10.972Z,96702.56
2022-10-17T02:18:57.679Z,96707.16
2022-10-17T02:21:29.310Z,96715.49
2022-10-17T02:24:19.002Z,96710.05
2022-10-17T02:26:56.379Z,96713.09
2022-10-17T02:29:27.979Z,96712.66
2022-10-17T02:32:05.454Z,96712.94
2022-10-17T02:34:39.918Z,96716.13
2022-10-17T02:37:11.686Z,96718.22
2022-10-17T02:39:43.128Z,96724.03
2022-10-17T02:42:14.607Z,96720.09
2022-10-17T02:44:46.706Z,96722.73
2022-10-17T02:47:18.279Z,96727.55
2022-10-17T02:49:55.998Z,96733.04
2022-10-17T02:52:36.423Z,96736.64
2022-10-17T02:55:20.072Z,96738.59
2022-10-17T02:57:54.570Z,96739.28
2022-10-17T03:00:25.880Z,96740.84
2022-10-17T03:02:55.915Z,96742.71
2022-10-17T03:05:27.356Z,96746.34
2022-10-17T03:07:57.231Z,96747.81
2022-10-17T03:10:25.727Z,96752.32
2022-10-17T03:12:54.347Z,96752.19
2022-10-17T03:15:22.992Z,96755.38
2022-10-17T03:17:51.732Z,96752.09
2022-10-17T03:20:20.303Z,96750.47
2022-10-17T03:22:49.100Z,96758.22
2022-10-17T03:25:17.837Z,96755.75
2022-10-17T03:27:46.584Z,96757.23
2022-10-17T03:30:15.258Z,96754.41
2022-10-17T03:32:43.908Z,96755.44
2022-10-17T03:35:14.877Z,96752.84
2022-10-17T03:37:42.839Z,96754.73
2022-10-17T03:40:12.053Z,96754.70
2022-10-17T03:42:42.678Z,96756.22
2022-10-17T03:45:13.087Z,96760.38
2022-10-17T03:47:41.772Z,96688.64
2022-10-17T03:50:10.801Z,96764.72
2022-10-17T03:52:41.114Z,96768.14
2022-10-17T03:55:09.862Z,96766.46
2022-10-17T03:57:41.058Z,96771.34
2022-10-17T04:00:09.833Z,96772.25
2022-10-17T04:02:38.505Z,96770.52
2022-10-17T04:05:10.410Z,96769.98
2022-10-17T04:07:39.153Z,96769.28
2022-10-17T04:10:08.452Z,96772.19
2022-10-17T04:12:37.096Z,96772.27
2022-10-17T04:15:06.136Z,96773.22
2022-10-17T04:17:37.975Z,96770.59
2022-10-17T04:20:05.584Z,96775.78
2022-10-17T04:22:34.258Z,96779.82
2022-10-17T04:25:04.928Z,96783.00
2022-10-17T04:27:33.617Z,96780.68
2022-10-17T04:30:02.323Z,96775.30
2022-10-17T04:32:31.149Z,96784.30
2022-10-17T04:34:59.943Z,96785.37
2022-10-17T04:37:30.651Z,96785.30
2022-10-17T04:39:59.439Z,96787.77
2022-10-17T04:42:30.741Z,96790.09
2022-10-17T04:44:59.585Z,96788.89
2022-10-17T04:47:29.696Z,96788.67
2022-10-17T04:50:04.513Z,96793.45
2022-10-17T04:52:37.683Z,96794.84
2022-10-17T04:55:07.975Z,96801.20
2022-10-17T04:57:37.517Z,96794.44
2022-10-17T05:02:37.836Z,96805.00
2022-10-17T05:05:06.878Z,96794.69
2022-10-17T05:07:35.580Z,96811.00
2022-10-17T05:10:04.450Z,96805.11
2022-10-17T05:12:33.105Z,96810.39
2022-10-17T05:15:01.875Z,96812.67
2022-10-17T05:17:30.497Z,96813.75
2022-10-17T05:19:59.070Z,96823.12
2022-10-17T05:22:28.039Z,96816.80
2022-10-17T05:24:57.005Z,96823.78
2022-10-17T05:27:25.671Z,96831.14
2022-10-17T05:29:54.357Z,96828.98
2022-10-17T05:32:22.922Z,96832.29
2022-10-17T05:34:51.619Z,96839.31
2022-10-17T05:37:20.457Z,96836.23
2022-10-17T05:39:51.486Z,96836.65
2022-10-17T05:42:19.720Z,96839.94
2022-10-17T05:44:48.799Z,96841.81
2022-10-17T05:47:18.169Z,96842.45
2022-10-17T05:49:51.388Z,96849.86
2022-10-17T05:52:18.279Z,96847.84
2022-10-17T05:54:48.058Z,96855.45
2022-10-17T05:57:19.010Z,96855.75
2022-10-17T05:59:47.605Z,96855.98
2022-10-17T06:02:16.371Z,96867.12
2022-10-17T06:04:46.903Z,96871.66
2022-10-17T06:07:15.887Z,96875.37
2022-10-17T06:12:13.264Z,96876.27
2022-10-17T06:14:41.932Z,96816.19
2022-10-17T06:17:15.533Z,96871.36
2022-10-17T06:19:41.589Z,96871.01
2022-10-17T06:22:10.274Z,96879.33
2022-10-17T06:24:38.887Z,96879.14
2022-10-17T06:27:11.750Z,96887.41
2022-10-17T06:29:39.616Z,96892.22
2022-10-17T06:32:11.301Z,96896.52
2022-10-17T06:34:39.196Z,96896.80
2022-10-17T06:37:07.887Z,96901.16
2022-10-17T06:39:36.837Z,96907.23
2022-10-17T06:42:05.702Z,96901.19
2022-10-17T06:44:34.567Z,96902.09
2022-10-17T06:47:03.327Z,96838.31
2022-10-17T06:49:33.624Z,96904.16
2022-10-17T06:52:02.385Z,96902.17
2022-10-17T06:54:31.144Z,96901.59
2022-10-17T06:56:59.765Z,96903.95
2022-10-17T06:59:28.448Z,96906.20
2022-10-17T07:01:57.177Z,96906.11
2022-10-17T07:04:25.775Z,96904.52
2022-10-17T07:06:54.517Z,96909.20
2022-10-17T07:09:24.222Z,96914.78
2022-10-17T07:11:52.812Z,96911.80
2022-10-17T07:14:22.973Z,96903.88
2022-10-17T07:16:51.702Z,96906.84
2022-10-17T07:19:20.449Z,96898.97
2022-10-17T07:21:49.128Z,96899.40
2022-10-17T07:24:17.884Z,96900.94
2022-10-17T07:26:46.911Z,96902.04
2022-10-17T07:29:15.545Z,96912.38
2022-10-17T07:31:45.678Z,96905.41
2022-10-17T07:34:14.331Z,96912.22
2022-10-17T07:36:43.084Z,96902.62
2022-10-17T07:39:12.368Z,96913.14
2022-10-17T07:41:43.440Z,96912.53
2022-10-17T07:44:12.036Z,96908.94
2022-10-17T07:46:42.270Z,96919.91
2022-10-17T07:49:10.944Z,96916.53
2022-10-17T07:51:39.532Z,96914.13
2022-10-17T07:54:08.249Z,96914.86
2022-10-17T07:56:37.011Z,96914.60
2022-10-17T07:59:08.470Z,96917.58
2022-10-17T08:01:37.085Z,96909.64
2022-10-17T08:04:05.763Z,96915.85
2022-10-17T08:06:34.449Z,96916.59
2022-10-17T08:09:03.634Z,96916.41
2022-10-17T08:11:32.396Z,96914.52
2022-10-17T08:14:01.016Z,96903.77
2022-10-17T08:16:29.702Z,96901.75
2022-10-17T08:18:58.418Z,96900.22
2022-10-17T08:21:27.163Z,96891.48
2022-10-17T08:23:55.797Z,96890.38
2022-10-17T08:26:24.449Z,96892.20
2022-10-17T08:28:53.630Z,96890.13
2022-10-17T08:31:23.481Z,96883.92
2022-10-17T08:33:52.055Z,96881.47
2022-10-17T08:36:22.021Z,96878.00
2022-10-17T08:38:53.022Z,96883.17
2022-10-17T08:41:40.250Z,96885.88
2022-10-17T08:44:32.665Z,96885.17
2022-10-17T08:47:04.970Z,96876.96
2022-10-17T08:49:55.895Z,96880.81
2022-10-17T08:52:30.801Z,96878.63
2022-10-17T08:54:59.811Z,96889.69
2022-10-17T08:57:29.525Z,96883.42
2022-10-17T09:00:00.201Z,96885.29
2022-10-17T09:02:37.612Z,96889.90
2022-10-17T09:05:27.433Z,96886.95
2022-10-17T09:08:32.982Z,96891.03
2022-10-17T09:11:19.541Z,96880.20
2022-10-17T09:14:02.929Z,96885.59
2022-10-17T09:16:40.834Z,96885.17
2022-10-17T09:19:12.489Z,96889.93
2022-10-17T09:21:55.952Z,96887.58
2022-10-17T09:24:42.281Z,96884.80
2022-10-17T09:27:31.350Z,96881.95
2022-10-17T09:30:40.142Z,96879.22
2022-10-17T09:32:51.429Z,96886.34
2022-10-17T09:35:22.126Z,96882.30
2022-10-17T09:37:51.155Z,96874.05
2022-10-17T09:40:25.355Z,96875.75
2022-10-17T09:42:54.732Z,96868.33
2022-10-17T09:45:26.983Z,96863.29
2022-10-17T09:48:09.163Z,96868.16
2022-10-17T09:50:41.291Z,96869.39
2022-10-17T09:53:21.092Z,96867.16
2022-10-17T09:55:52.697Z,96862.13
2022-10-17T09:58:24.165Z,96862.83
2022-10-17T10:00:52.874Z,96855.86
2022-10-17T10:03:27.364Z,96855.64
2022-10-17T10:06:05.419Z,96846.69
2022-10-17T10:08:47.199Z,96846.11
2022-10-17T10:11:17.767Z,96844.37
2022-10-17T10:13:49.300Z,96834.28
2022-10-17T10:16:20.978Z,96836.23
2022-10-17T10:18:51.164Z,96836.31
2022-10-17T10:21:22.510Z,96837.14
2022-10-17T10:24:15.748Z,96826.58
2022-10-17T10:27:11.550Z,96830.81
2022-10-17T10:29:43.251Z,96829.13
2022-10-17T10:35:25.235Z,96822.87
2022-10-17T10:37:56.702Z,96817.50
2022-10-17T10:40:50.978Z,96815.70
2022-10-17T10:43:25.335Z,96822.14
2022-10-17T10:45:53.983Z,96811.77
2022-10-17T10:48:28.197Z,96818.65
2022-10-17T10:51:02.726Z,96808.84
2022-10-17T10:53:35.535Z,96810.06
2022-10-17T10:56:31.343Z,96803.58
2022-10-17T10:59:05.638Z,96797.44
2022-10-17T11:02:10.451Z,96795.58
2022-10-17T11:05:04.552Z,96794.09
2022-10-17T11:07:38.662Z,96789.19
2022-10-17T11:10:44.602Z,96790.53
2022-10-17T11:13:27.089Z,96787.58
2022-10-17T11:16:07.829Z,96782.20
2022-10-17T11:18:55.836Z,96783.19
2022-10-17T11:21:44.110Z,96784.37
2022-10-17T11:24:15.677Z,96780.70
2022-10-17T11:26:47.218Z,96777.48
2022-10-17T11:29:15.842Z,96776.52
2022-10-17T11:31:47.452Z,96773.30
2022-10-17T11:34:24.862Z,96771.81
2022-10-17T11:36:59.002Z,96775.84
2022-10-17T11:39:39.599Z,96773.24
2022-10-17T11:42:17.569Z,96770.84
2022-10-17T11:44:46.514Z,96772.95
2022-10-17T11:47:24.186Z,96765.48
2022-10-17T11:49:55.836Z,96766.16
2022-10-17T11:52:57.431Z,96755.05
2022-10-17T11:55:18.818Z,96763.10
2022-10-17T11:58:09.856Z,96750.31
2022-10-17T12:01:00.897Z,96746.80
2022-10-17T12:03:38.298Z,96749.22
2022-10-17T12:06:30.770Z,96743.58
2022-10-17T12:09:14.500Z,96743.38
2022-10-17T12:11:58.303Z,96747.30
2022-10-17T12:14:38.639Z,96737.55
2022-10-17T12:17:25.618Z,96742.75
2022-10-17T12:19:54.469Z,96742.09
2022-10-17T12:22:26.945Z,96741.73
2022-10-17T12:25:01.573Z,96743.52
2022-10-17T12:27:36.218Z,96740.63
2022-10-17T12:30:07.804Z,96731.19
2022-10-17T12:32:53.161Z,96737.39
2022-10-17T12:35:08.966Z,96736.69
2022-10-17T12:37:58.630Z,96735.73
2022-10-17T12:40:42.224Z,96657.08
2022-10-17T12:43:20.237Z,96730.21
2022-10-17T12:45:54.134Z,96733.88
2022-10-17T12:48:43.712Z,96729.59
2022-10-17T12:53:54.191Z,96724.67
2022-10-17T12:56:25.572Z,96725.90
2022-10-17T12:58:54.668Z,96725.33
2022-10-17T13:01:37.992Z,96724.84
2022-10-17T13:04:08.427Z,96727.35
2022-10-17T13:06:40.482Z,96726.55
2022-10-17T13:09:37.761Z,96725.81
2022-10-17T13:12:09.359Z,96721.11
2022-10-17T13:14:40.971Z,96720.92
2022-10-17T13:17:14.230Z,96719.16
2022-10-17T13:19:46.192Z,96720.44
2022-10-17T13:22:23.522Z,96720.24
2022-10-17T13:24:57.536Z,96722.55
2022-10-17T13:27:32.128Z,96720.44
2022-10-17T13:30:03.036Z,96724.48
2022-10-17T13:32:41.989Z,96722.36
2022-10-17T13:35:13.778Z,96719.66
2022-10-17T13:37:45.353Z,96717.89
2022-10-17T13:40:40.824Z,96728.64
2022-10-17T13:42:58.157Z,96723.05
2022-10-17T13:45:35.192Z,96725.13
2022-10-17T13:48:12.587Z,96720.70
2022-10-17T13:50:44.805Z,96724.13
2022-10-17T13:53:37.714Z,96729.70
2022-10-17T13:56:27.395Z,96722.95
2022-10-17T13:58:45.362Z,96723.50
2022-10-17T14:01:15.239Z,96724.98
2022-10-17T14:03:48.659Z,96723.79
2022-10-17T14:06:19.199Z,96725.47
2022-10-17T14:08:50.963Z,96725.08
2022-10-17T14:11:25.568Z,96724.55
2022-10-17T14:13:56.132Z,96732.58
2022-10-17T14:16:27.565Z,96736.59
2022-10-17T14:18:57.533Z,96733.05
2022-10-17T14:21:44.230Z,96737.57
2022-10-17T14:24:15.443Z,96740.58
2022-10-17T14:26:55.677Z,96740.95
2022-10-17T14:29:30.095Z,96736.57
2022-10-17T14:32:08.787Z,96735.65
2022-10-17T14:34:40.732Z,96743.73
2022-10-17T14:37:27.622Z,96744.89
2022-10-17T14:39:56.699Z,96739.05
2022-10-17T14:42:28.212Z,96738.20
2022-10-17T14:45:00.493Z,96741.05
2022-10-17T14:47:43.956Z,96744.41
2022-10-17T14:50:26.389Z,96745.20
2022-10-17T14:53:15.005Z,96745.95
2022-10-17T14:55:46.598Z,96751.97
2022-10-17T14:58:24.175Z,96757.05
2022-10-17T15:00:52.769Z,96750.61
2022-10-17T15:03:22.955Z,96754.18
2022-10-17T15:05:54.721Z,96756.77
2022-10-17T15:08:27.512Z,96751.93
2022-10-17T15:10:58.449Z,96748.30
2022-10-17T15:13:29.479Z,96751.09
2022-10-17T15:15:57.425Z,96755.46
2022-10-17T15:18:29.021Z,96754.05
2022-10-17T15:21:47.249Z,96758.71
2022-10-17T15:24:15.806Z,96759.17
2022-10-17T15:26:44.540Z,96766.98
2022-10-17T15:29:17.554Z,96765.65
2022-10-17T15:31:46.204Z,96764.83
2022-10-17T15:34:15.808Z,96767.03
2022-10-17T15:36:47.674Z,96776.94
2022-10-17T15:39:19.541Z,96771.77
2022-10-17T15:41:49.536Z,96770.81
2022-10-17T15:44:18.355Z,96776.17
2022-10-17T15:46:47.086Z,96777.84
2022-10-17T15:49:17.867Z,96784.97
2022-10-17T15:52:03.399Z,96779.77
2022-10-17T15:54:33.304Z,96783.90
2022-10-17T15:57:02.041Z,96783.58
2022-10-17T15:59:33.601Z,96792.44
2022-10-17T16:02:02.183Z,96796.23
2022-10-17T16:04:34.890Z,96802.86
2022-10-17T16:07:03.432Z,96805.75
2022-10-17T16:09:32.088Z,96806.00
2022-10-17T16:12:02.568Z,96812.27
2022-10-17T16:14:32.467Z,96812.78
2022-10-17T16:17:04.966Z,96822.83
2022-10-17T16:19:33.629Z,96821.22
2022-10-17T16:22:04.734Z,96819.55
2022-10-17T16:24:33.922Z,96826.81
2022-10-17T16:27:04.875Z,96818.38
2022-10-17T16:29:36.466Z,96826.70
2022-10-17T16:32:05.133Z,96832.72
2022-10-17T16:34:33.806Z,96832.31
2022-10-17T16:37:02.555Z,96838.35
2022-10-17T16:39:31.197Z,96841.05
2022-10-17T16:42:00.004Z,96833.96
2022-10-17T16:44:28.653Z,96843.03
2022-10-17T16:46:59.399Z,96841.83
2022-10-17T16:49:27.609Z,96847.59
2022-10-17T16:51:56.403Z,96845.81
2022-10-17T16:54:25.031Z,96848.04
2022-10-17T16:56:53.678Z,96852.04
2022-10-17T16:59:22.511Z,96853.14
2022-10-17T17:01:51.458Z,96860.60
2022-10-17T17:04:21.664Z,96861.27
2022-10-17T17:06:50.420Z,96862.14
2022-10-17T17:09:19.171Z,96871.92
2022-10-17T17:11:50.473Z,96879.78
2022-10-17T17:14:19.254Z,96881.52
2022-10-17T17:16:56.717Z,96889.39
2022-10-17T17:19:24.963Z,96884.80
2022-10-17T17:21:53.592Z,96883.24
2022-10-17T17:24:22.644Z,96884.24
2022-10-17T17:26:56.162Z,96889.41
2022-10-17T17:29:27.041Z,96887.71
2022-10-17T17:31:55.634Z,96891.15
2022-10-17T17:34:24.270Z,96892.41
2022-10-17T17:36:54.644Z,96896.70
2022-10-17T17:39:24.526Z,96896.82
2022-10-17T17:41:53.162Z,96901.74
2022-10-17T17:44:21.907Z,96904.48
2022-10-17T17:46:50.806Z,96900.66
2022-10-17T17:49:19.319Z,96906.10
2022-10-17T17:51:47.969Z,96906.39
2022-10-17T17:54:18.882Z,96905.50
2022-10-17T17:56:47.074Z,96903.80
2022-10-17T17:59:15.913Z,96908.67
2022-10-17T18:01:45.115Z,96908.28
2022-10-17T18:04:13.880Z,96904.40
2022-10-17T18:06:42.550Z,96905.84
2022-10-17T18:09:11.517Z,96901.12
2022-10-17T18:11:40.245Z,96905.50
2022-10-17T18:14:11.932Z,96909.47
2022-10-17T18:16:40.660Z,96913.23
2022-10-17T18:19:11.324Z,96917.62
2022-10-17T18:21:49.052Z,96917.66
2022-10-17T18:24:20.474Z,96919.35
2022-10-17T18:26:49.986Z,96916.81
2022-10-17T18:29:18.645Z,96916.09
2022-10-17T18:31:47.346Z,96912.04
2022-10-17T18:34:15.905Z,96874.45
2022-10-17T18:36:44.480Z,96910.64
2022-10-17T18:39:18.412Z,96920.83
2022-10-17T18:41:47.116Z,96919.75
2022-10-17T18:44:16.813Z,96916.63
2022-10-17T18:49:18.620Z,96918.38
2022-10-17T18:51:47.905Z,96924.48
2022-10-17T18:54:25.175Z,96852.02
2022-10-17T18:56:57.482Z,96920.09
2022-10-17T18:59:27.396Z,96923.77
2022-10-17T19:01:56.183Z,96928.60
2022-10-17T19:04:24.995Z,96931.05
2022-10-17T19:06:53.718Z,96938.48
2022-10-17T19:09:22.462Z,96936.98
2022-10-17T19:11:51.185Z,96936.27
2022-10-17T19:14:19.829Z,96940.51
2022-10-17T19:16:51.704Z,96942.88
2022-10-17T19:19:25.413Z,96947.09
2022-10-17T19:21:54.762Z,96944.11
2022-10-17T19:24:27.971Z,96945.44
2022-10-17T19:27:00.622Z,96951.63
2022-10-17T19:29:32.373Z,96949.74
2022-10-17T19:32:05.210Z,96947.77
2022-10-17T19:34:34.450Z,96944.55
2022-10-17T19:37:03.095Z,96951.42
2022-10-17T19:39:31.595Z,96947.44
2022-10-17T19:42:05.876Z,96952.03
2022-10-17T19:44:30.933Z,96949.90
2022-10-17T19:46:59.490Z,96950.37
2022-10-17T19:49:28.631Z,96946.02
2022-10-17T19:51:57.298Z,96954.53
2022-10-17T19:54:25.911Z,96952.64
2022-10-17T19:57:01.432Z,96954.20
2022-10-17T20:00:01.623Z,96954.18
2022-10-17T20:05:36.462Z,96958.63
2022-10-17T20:08:11.071Z,96963.69
2022-10-17T20:10:44.199Z,96957.41
2022-10-17T20:13:20.199Z,96964.94
2022-10-17T20:16:08.968Z,96960.61
2022-10-17T20:18:39.553Z,96972.70
2022-10-17T20:21:14.216Z,96963.29
2022-10-17T20:23:43.866Z,96967.77
2022-10-17T20:26:33.234Z,96966.80
2022-10-17T20:28:46.531Z,96959.06
2022-10-17T20:31:16.212Z,96964.89
2022-10-17T20:33:45.075Z,96963.06
2022-10-17T20:36:19.412Z,96957.80
2022-10-17T20:38:48.047Z,96959.86
2022-10-17T20:41:16.696Z,96957.83
2022-10-17T20:43:45.839Z,96951.55
2022-10-17T20:46:35.201Z,96958.80
2022-10-17T20:48:49.546Z,96955.41
2022-10-17T20:51:18.302Z,96957.82
2022-10-17T20:53:47.114Z,96949.01
2022-10-17T20:56:21.376Z,96951.54
2022-10-17T20:58:58.799Z,96945.40
2022-10-17T21:01:28.843Z,96951.80
2022-10-17T21:04:06.201Z,96952.27
2022-10-17T21:06:28.091Z,96954.69
2022-10-17T21:08:59.477Z,96957.09
2022-10-17T21:11:30.120Z,96954.13
2022-10-17T21:14:07.584Z,96953.22
2022-10-17T21:16:39.287Z,96955.62
2022-10-17T21:19:12.637Z,96947.20
2022-10-17T21:21:43.954Z,96945.09
2022-10-17T21:24:16.844Z,96955.80
2022-10-17T21:26:47.089Z,96949.30
2022-10-17T21:29:16.202Z,96956.83
2022-10-17T21:31:45.926Z,96955.74
2022-10-17T21:34:18.971Z,96952.23
2022-10-17T21:36:48.177Z,96953.80
2022-10-17T21:39:20.291Z,96948.84
2022-10-17T21:41:49.022Z,96947.38
2022-10-17T21:44:20.666Z,96953.70
2022-10-17T21:46:52.325Z,96953.60
2022-10-17T21:49:23.412Z,96954.86
2022-10-17T21:51:53.306Z,96951.59
2022-10-17T21:54:23.499Z,96954.00
2022-10-17T21:56:53.083Z,96951.73
2022-10-17T21:59:22.466Z,96950.60
2022-10-17T22:01:51.317Z,96946.79
2022-10-17T22:04:20.839Z,96946.93
2022-10-17T22:06:53.476Z,96949.64
2022-10-17T22:09:24.807Z,96950.66
2022-10-17T22:11:56.951Z,96944.06
2022-10-17T22:17:33.593Z,96948.52
2022-10-17T22:20:02.415Z,96948.34
2022-10-17T22:22:31.898Z,96946.09
2022-10-17T22:25:00.566Z,96948.20
2022-10-17T22:27:29.493Z,96941.31
2022-10-17T22:29:59.718Z,96952.14
2022-10-17T22:32:28.309Z,96949.10
2022-10-17T22:34:59.522Z,96949.04
2022-10-17T22:37:28.344Z,96949.38
2022-10-17T22:39:58.855Z,96948.34
2022-10-17T22:42:29.097Z,96943.26
2022-10-17T22:44:58.411Z,96937.59
2022-10-17T22:47:26.948Z,96940.30
2022-10-17T22:49:55.719Z,96940.39
2022-10-17T22:52:26.299Z,96936.86
2022-10-17T22:54:54.958Z,96940.23
2022-10-17T22:57:23.790Z,96939.66
2022-10-17T22:59:52.419Z,96941.02
2022-10-17T23:02:21.203Z,96936.66
2022-10-17T23:04:49.866Z,96942.07
2022-10-17T23:07:20.102Z,96936.78
2022-10-17T23:09:48.754Z,96933.21
2022-10-17T23:12:18.880Z,96932.73
2022-10-17T23:14:47.553Z,96936.70
2022-10-17T23:17:16.584Z,96942.07
2022-10-17T23:19:45.322Z,96937.62
2022-10-17T23:22:13.993Z,96932.81
2022-10-17T23:24:42.656Z,96933.78
2022-10-17T23:27:11.313Z,96937.78
2022-10-17T23:29:40.061Z,96936.75
2022-10-17T23:32:08.690Z,96932.41
2022-10-17T23:34:37.342Z,96929.27
2022-10-17T23:37:07.699Z,96937.16
2022-10-17T23:39:38.419Z,96925.30
2022-10-17T23:42:06.694Z,96931.03
2022-10-17T23:44:35.365Z,96929.95
2022-10-17T23:47:09.842Z,96929.27
2022-10-17T23:49:38.473Z,96928.09
2022-10-17T23:52:07.495Z,96925.77
2022-10-17T23:54:36.425Z,96917.83
2022-10-17T23:57:05.429Z,96917.53
2022-10-17T23:59:34.361Z,96922.00
